In Rescue
 
Open Full Screen Window  High Contrast Mode
July 25, 2021 7:25 AM EDT
Weather Information
Wind Direction
  ---
Wind Speed
  00 kt (0 mph)
Wind Gust
  00 kt (0 mph)
Altimeter
29.90 in
Visibility
7 SM
Temperature
16° C
61° F
Dewpoint
16° C
61° F
Humidity
100%
1hr Rain Fall
00.00 in.
24hr Rain Fall
00.09 in.
Sky Condition
Clear
VFR

METAR KLDM 251125Z AUTO 00000KT 7SM CLR 16/16 A2990 RMK AO2 T01630159

FAA Disclaimer: The data displayed is for advisory purposes only and is not to be used for flight planning or operations.